Time;durP1;ratioP1;P1;durP2;ratioP2;P2;SDS_P1;SDS_P2;PMS_P1;PMS_P2;Temp;Humidity;BMP_temperature;BMP_pressure;BME280_temperature;BME280_humidity;BME280_pressure;Samples;Min_cycle;Max_cycle;Signal;HPM_P1;HPM_P2
2023/07/19 00:00:17;;;;;;;;;;;16.90;99.90;;;15.92;82.27;101031.09;5005801;28;20037;-76
2023/07/19 00:02:43;;;;;;;2.63;1.20;;;16.90;99.90;;;15.88;81.48;101033.09;5016237;28;19920;-76
2023/07/19 00:05:09;;;;;;;;;;;16.80;99.90;;;15.88;81.51;101027.78;5014916;28;20053;-76
2023/07/19 00:07:35;;;;;;;2.38;1.17;;;16.80;99.90;;;15.90;81.46;101030.34;5013943;28;20132;-76
2023/07/19 00:10:02;;;;;;;5.78;1.40;;;16.80;99.90;;;15.95;81.45;101029.09;5002299;28;20032;-76
2023/07/19 00:12:28;;;;;;;3.00;1.10;;;16.80;99.90;;;15.99;81.20;101019.13;5007160;28;20509;-75
2023/07/19 00:14:54;;;;;;;4.45;1.70;;;16.80;99.90;;;16.05;81.14;101017.91;5002356;28;21754;-76
2023/07/19 00:17:20;;;;;;;6.00;1.55;;;16.90;99.90;;;16.07;80.81;101016.84;5004071;28;20033;-75
2023/07/19 00:19:45;;;;;;;6.10;1.20;;;16.90;99.90;;;16.11;80.72;101017.47;5000969;28;20056;-75
2023/07/19 00:22:11;;;;;;;;;;;16.90;99.90;;;16.09;80.31;101014.94;4999402;28;20075;-76
2023/07/19 00:24:40;;;;;;;4.03;1.67;;;16.90;99.90;;;16.08;80.03;101007.91;4985280;28;19925;-76
2023/07/19 00:27:05;;;;;;;2.83;1.40;;;16.90;99.90;;;16.11;80.28;101013.03;5011746;28;20453;-76
2023/07/19 00:29:31;;;;;;;6.85;1.48;;;17.00;99.90;;;16.12;80.10;101009.41;5016292;28;20037;-76
2023/07/19 00:31:57;;;;;;;;;;;16.90;99.90;;;16.10;80.20;101008.66;5023251;28;20104;-76
2023/07/19 00:34:23;;;;;;;3.78;1.48;;;16.90;99.90;;;16.10;80.42;101002.50;5021222;28;19924;-75
2023/07/19 00:36:48;;;;;;;;;;;17.00;99.90;;;16.08;80.77;101010.56;5015617;28;20029;-76
2023/07/19 00:39:14;;;;;;;4.80;1.40;;;16.90;99.90;;;16.06;80.06;100998.34;5015446;28;20361;-76
2023/07/19 00:41:42;;;;;;;;;;;16.90;99.90;;;16.05;80.02;101008.13;5020758;28;20463;-76
2023/07/19 00:44:08;;;;;;;1.98;1.00;;;16.90;99.90;;;16.01;80.56;101003.09;5007995;28;20293;-76
2023/07/19 00:46:34;;;;;;;4.07;1.58;;;16.90;99.90;;;16.00;80.94;101004.88;5013452;28;20120;-76
2023/07/19 00:49:01;;;;;;;5.28;1.65;;;16.90;99.90;;;15.99;80.77;100990.75;5007237;28;20073;-75
2023/07/19 00:51:26;;;;;;;2.47;1.10;;;16.90;99.90;;;15.99;81.05;100990.75;5006907;28;20049;-76
2023/07/19 00:53:53;;;;;;;3.63;1.75;;;16.80;99.90;;;15.99;81.25;100987.25;5006034;28;20037;-75
2023/07/19 00:56:20;;;;;;;6.13;1.30;;;16.80;99.90;;;15.97;81.79;100986.50;5006949;28;20029;-75
2023/07/19 00:58:50;;;;;;;5.70;1.48;;;16.80;99.90;;;15.96;82.07;100977.69;5007627;28;20029;-75
2023/07/19 01:01:16;;;;;;;5.10;1.88;;;16.80;99.90;;;15.97;82.42;100982.03;5016994;28;20038;-75
2023/07/19 01:03:42;;;;;;;3.45;1.50;;;16.80;99.90;;;15.97;83.08;100978.53;5005401;28;20127;-75
2023/07/19 01:06:08;;;;;;;6.55;1.80;;;16.80;99.90;;;15.97;83.70;100978.53;4987736;28;20111;-75
2023/07/19 01:08:35;;;;;;;6.68;2.00;;;16.80;99.90;;;15.98;84.07;100985.53;5014639;28;20041;-75
2023/07/19 01:11:01;;;;;;;7.07;2.53;;;16.80;99.90;;;15.98;83.62;100983.75;5016043;28;20041;-75
2023/07/19 01:13:27;;;;;;;8.50;2.30;;;16.80;99.90;;;15.99;83.58;100990.75;4999587;28;20049;-75
2023/07/19 01:15:53;;;;;;;4.32;1.52;;;16.80;99.90;;;15.96;84.27;100984.78;5030404;28;20025;-75
2023/07/19 01:18:19;;;;;;;;;;;16.80;99.90;;;15.90;83.83;100990.53;5010480;28;20120;-75
2023/07/19 01:20:45;;;;;;;4.72;1.67;;;16.80;99.90;;;15.86;83.72;100986.34;5011375;28;20426;-75
2023/07/19 01:23:12;;;;;;;9.77;1.70;;;16.70;99.90;;;15.85;84.30;100985.47;5006680;28;20048;-75
2023/07/19 01:25:38;;;;;;;4.03;1.27;;;16.70;99.90;;;15.84;84.27;100986.44;4996813;28;20044;-75
2023/07/19 01:28:04;;;;;;;8.55;1.98;;;16.70;99.90;;;15.85;84.71;100985.47;4997631;28;20036;-75
2023/07/19 01:30:30;;;;;;;7.63;2.42;;;16.70;99.90;;;15.84;86.23;100985.59;5003430;28;20479;-75
2023/07/19 01:32:56;;;;;;;5.55;2.30;;;16.70;99.90;;;15.82;87.29;100984.84;5031365;28;20021;-75
2023/07/19 01:35:22;;;;;;;;;;;16.70;99.90;;;15.79;87.58;100983.25;5014704;28;20445;-75
2023/07/19 01:37:48;;;;;;;15.63;2.40;;;16.60;99.90;;;15.76;87.49;100986.94;5020181;28;20406;-75
2023/07/19 01:40:14;;;;;;;;;;;16.60;99.90;;;15.72;89.37;100980.13;5022241;28;20034;-75
2023/07/19 01:42:40;;;;;;;4.27;1.60;;;16.60;99.90;;;15.68;89.98;100981.25;4994722;28;20287;-75
2023/07/19 01:45:06;;;;;;;;;;;16.60;99.90;;;15.70;89.82;100979.34;4989315;28;20269;-75
2023/07/19 01:47:35;;;;;;;6.38;2.15;;;16.60;99.90;;;15.70;89.06;100987.31;4992863;28;19948;-75
2023/07/19 01:50:01;;;;;;;5.45;2.08;;;16.60;99.90;;;15.75;88.36;100987.91;5014511;28;20049;-75
2023/07/19 01:52:26;;;;;;;3.17;1.60;;;16.60;99.90;;;15.79;88.42;100992.06;5006147;28;20037;-75
2023/07/19 01:54:52;;;;;;;;;;;16.60;99.90;;;15.81;88.41;100988.44;5004507;28;20037;-75
2023/07/19 01:57:18;;;;;;;4.70;1.50;;;16.70;99.90;;;15.79;88.08;100986.75;4996998;28;19928;-75
2023/07/19 01:59:43;;;;;;;;;;;16.60;99.90;;;15.77;88.04;100986.00;5002212;28;20041;-75
2023/07/19 02:02:09;;;;;;;3.05;1.52;;;16.60;99.90;;;15.76;87.75;100981.63;5014487;28;20364;-75
2023/07/19 02:04:35;;;;;;;;;;;16.60;99.90;;;15.73;87.98;100981.81;4997877;28;20042;-75
2023/07/19 02:07:01;;;;;;;6.32;1.40;;;16.60;99.90;;;15.73;88.21;100975.69;5011817;28;19929;-75
2023/07/19 02:09:26;;;;;;;;;;;16.60;99.90;;;15.72;88.36;100974.81;4987383;28;20033;-76
2023/07/19 02:11:52;;;;;;;7.80;1.95;;;16.60;99.90;;;15.70;88.60;100966.09;5003345;28;19917;-75
2023/07/19 02:14:18;;;;;;;;;;;16.60;99.90;;;15.65;89.93;100965.50;5012453;28;20049;-75
2023/07/19 02:16:44;;;;;;;6.03;2.00;;;16.50;99.90;;;15.52;91.04;100949.50;5012462;28;19920;-75
2023/07/19 02:19:10;;;;;;;8.23;2.25;;;16.40;99.90;;;15.49;91.21;100955.03;5019688;28;20060;-75
2023/07/19 02:21:36;;;;;;;4.97;2.10;;;16.40;99.90;;;15.51;90.20;100958.44;5011523;28;20029;-75
2023/07/19 02:24:01;;;;;;;;;;;16.40;99.90;;;15.50;90.00;100954.06;4965729;28;20077;-75
2023/07/19 02:26:27;;;;;;;4.70;2.03;;;16.40;99.90;;;15.50;89.79;100948.75;5013310;28;19978;-76
2023/07/19 02:28:55;;;;;;;7.40;2.22;;;16.40;99.90;;;15.46;91.38;100941.09;5022397;28;20037;-76
2023/07/19 02:31:21;;;;;;;8.13;2.05;;;16.40;99.90;;;15.31;93.63;100927.00;5006449;28;20044;-76
2023/07/19 02:33:47;;;;;;;6.25;1.90;;;16.30;99.90;;;15.37;93.62;100935.41;4976938;28;20041;-76
2023/07/19 02:36:13;;;;;;;;;;;16.30;99.90;;;15.39;93.34;100936.16;4993134;28;20093;-76
2023/07/19 02:38:39;;;;;;;3.65;1.75;;;16.30;99.90;;;15.41;92.64;100944.03;5011630;28;20607;-76
2023/07/19 02:41:06;;;;;;;3.03;1.80;;;16.30;99.90;;;15.43;92.23;100941.28;5004406;28;20053;-76
2023/07/19 02:43:34;;;;;;;4.82;1.73;;;16.30;99.90;;;15.45;91.68;100944.72;4986898;28;20179;-76
2023/07/19 02:46:00;;;;;;;5.78;1.88;;;16.30;99.90;;;15.47;91.91;100948.13;4971197;28;20033;-76
2023/07/19 02:48:26;;;;;;;6.45;1.98;;;16.40;99.90;;;15.49;92.58;100951.53;5004349;28;20063;-77
2023/07/19 02:50:52;;;;;;;6.13;1.65;;;16.40;99.90;;;15.50;92.94;100946.09;5005818;28;20036;-76
2023/07/19 02:53:18;;;;;;;4.20;2.10;;;16.40;99.90;;;15.53;93.61;100953.03;4983100;28;20552;-76
2023/07/19 02:55:45;;;;;;;3.45;1.90;;;16.40;99.90;;;15.53;93.71;100945.06;5002555;28;20116;-76
2023/07/19 02:58:12;;;;;;;7.28;2.30;;;16.40;99.90;;;15.54;93.62;100949.41;4996336;28;20053;-76
2023/07/19 03:00:43;;;;;;;9.82;2.28;;;16.40;99.90;;;15.53;93.82;100945.91;5005696;28;20560;-77
2023/07/19 03:03:12;;;;;;;10.30;2.13;;;16.40;99.90;;;15.56;93.95;100952.81;4983200;28;20126;-76
2023/07/19 03:05:43;;;;;;;4.53;2.08;;;16.40;99.90;;;15.57;94.30;100946.56;5011204;28;20106;-76
2023/07/19 03:08:09;;;;;;;5.90;2.22;;;16.40;99.90;;;15.57;94.59;100946.56;5005272;28;20045;-76
2023/07/19 03:10:36;;;;;;;7.18;2.17;;;16.40;99.90;;;15.58;95.23;100940.31;4998026;28;20068;-76
2023/07/19 03:13:02;;;;;;;7.28;2.10;;;16.40;99.90;;;15.57;95.47;100934.16;4999977;28;20029;-76
2023/07/19 03:15:32;;;;;;;4.80;1.83;;;16.40;99.90;;;15.58;94.93;100937.66;4991392;28;20033;-76
2023/07/19 03:18:04;;;;;;;6.60;2.35;;;16.50;99.90;;;15.58;95.26;100940.31;4992431;28;20033;-75
2023/07/19 03:20:33;;;;;;;5.25;2.45;;;16.40;99.90;;;15.56;96.22;100934.25;5019990;28;20037;-76
2023/07/19 03:23:00;;;;;;;9.38;2.40;;;16.40;99.90;;;15.51;97.32;100931.06;4979912;28;20030;-76
2023/07/19 03:25:29;;;;;;;5.30;2.15;;;16.40;99.90;;;15.50;97.80;100940.78;4991907;28;20029;-76
2023/07/19 03:27:55;;;;;;;6.25;2.40;;;16.40;99.90;;;15.54;96.88;100938.81;4985493;28;20117;-76
2023/07/19 03:30:21;;;;;;;4.80;1.90;;;16.40;99.90;;;15.53;96.32;100932.66;5021554;28;20072;-76
2023/07/19 03:32:48;;;;;;;6.43;1.90;;;16.40;99.90;;;15.55;95.82;100929.88;5005485;28;20113;-75
2023/07/19 03:35:14;;;;;;;6.15;2.30;;;16.40;99.90;;;15.58;95.45;100930.53;5013979;28;20481;-76
2023/07/19 03:37:44;;;;;;;6.90;2.30;;;16.50;99.90;;;15.59;95.28;100924.31;5034885;28;20061;-76
2023/07/19 03:40:11;;;;;;;7.82;1.98;;;16.40;99.90;;;15.59;95.18;100921.66;4999619;28;20523;-75
2023/07/19 03:42:37;;;;;;;7.65;2.30;;;16.50;99.90;;;15.57;95.26;100915.59;5007983;28;20059;-76
2023/07/19 03:45:07;;;;;;;4.22;1.98;;;16.40;99.90;;;15.56;95.93;100915.66;5025429;28;20547;-76
2023/07/19 03:47:34;;;;;;;5.47;2.15;;;16.40;99.90;;;15.47;97.96;100910.97;5016579;28;20052;-76
2023/07/19 03:50:00;;;;;;;7.13;2.50;;;16.40;99.90;;;15.48;98.13;100905.53;4960576;28;20099;-75
2023/07/19 03:52:26;;;;;;;3.45;1.95;;;16.30;99.90;;;15.48;97.71;100902.03;5008921;28;20041;-76
2023/07/19 03:54:54;;;;;;;6.07;2.33;;;16.40;99.90;;;15.49;97.48;100907.25;5001394;28;20559;-75
2023/07/19 03:57:20;;;;;;;4.00;2.13;;;16.40;99.90;;;15.49;97.48;100909.06;5017239;28;20037;-76
2023/07/19 03:59:46;;;;;;;6.22;2.60;;;16.40;99.90;;;15.50;97.25;100905.44;5016563;28;20616;-76
2023/07/19 04:02:14;;;;;;;5.63;2.33;;;16.40;99.90;;;15.50;97.06;100910.75;5022098;28;20053;-76
2023/07/19 04:04:40;;;;;;;8.30;2.42;;;16.40;99.90;;;15.49;98.03;100919.69;4998356;28;20564;-76
2023/07/19 04:07:06;;;;;;;6.90;2.40;;;16.40;99.90;;;15.45;98.28;100926.97;5006958;28;20076;-76
2023/07/19 04:09:32;;;;;;;4.63;2.00;;;16.40;99.90;;;15.43;98.94;100930.69;5011499;28;20033;-75
2023/07/19 04:11:58;;;;;;;4.47;2.05;;;16.30;99.90;;;15.44;98.45;100933.22;5018828;28;20219;-76
2023/07/19 04:14:23;;;;;;;7.25;2.15;;;16.30;99.90;;;15.48;98.62;100939.19;5015317;28;20128;-75
2023/07/19 04:16:49;;;;;;;4.57;2.35;;;16.40;99.90;;;15.49;98.43;100928.50;5016464;28;20042;-75
2023/07/19 04:19:15;;;;;;;7.55;2.30;;;16.40;99.90;;;15.51;97.93;100933.72;5014897;28;20048;-76
2023/07/19 04:21:40;;;;;;;;;;;16.40;99.90;;;15.48;98.52;100923.28;5025404;28;20057;-76
2023/07/19 04:24:09;;;;;;;7.57;2.92;;;16.30;99.90;;;15.36;99.69;100912.50;4986098;28;19917;-76
2023/07/19 04:26:34;;;;;;;3.58;2.28;;;16.30;99.90;;;15.37;100.00;100911.53;5022815;28;20044;-75
2023/07/19 04:29:00;;;;;;;7.78;2.47;;;16.30;99.90;;;15.42;99.86;100913.91;4997894;28;20142;-76
2023/07/19 04:31:26;;;;;;;;;;;16.30;99.90;;;15.46;100.00;100911.91;5013759;28;20116;-76
2023/07/19 04:33:52;;;;;;;4.72;2.53;;;16.40;99.90;;;15.50;99.66;100910.75;5016865;28;19917;-76
2023/07/19 04:36:18;;;;;;;;;;;16.30;99.90;;;15.56;99.20;100905.91;5023100;28;20040;-76
2023/07/19 04:38:44;;;;;;;5.60;2.47;;;16.40;99.90;;;15.64;98.80;100913.38;4996654;28;20296;-76
2023/07/19 04:41:09;;;;;;;5.05;2.70;;;16.50;99.90;;;15.73;98.61;100907.50;4988393;28;20036;-76
2023/07/19 04:43:39;;;;;;;4.22;2.40;;;16.60;99.90;;;15.81;98.00;100908.78;4967481;28;20045;-76
2023/07/19 04:46:04;;;;;;;4.43;2.30;;;16.70;99.90;;;15.87;97.55;100911.88;4998075;28;20041;-76
2023/07/19 04:48:30;;;;;;;5.15;2.75;;;16.70;99.90;;;15.93;97.15;100903.53;4993748;28;20123;-76
2023/07/19 04:50:58;;;;;;;5.90;2.97;;;16.80;99.90;;;15.97;96.38;100910.34;5014654;28;20492;-76
2023/07/19 04:53:26;;;;;;;6.05;3.28;;;16.80;99.90;;;16.04;96.24;100915.25;5014486;28;20032;-75
2023/07/19 04:55:53;;;;;;;7.25;2.70;;;16.80;99.90;;;16.06;96.31;100906.22;5004346;28;20120;-76
2023/07/19 04:58:19;;;;;;;8.40;2.78;;;16.90;99.90;;;16.10;95.56;100898.91;4973604;28;20109;-75
2023/07/19 05:00:45;;;;;;;6.57;2.70;;;16.90;99.90;;;16.15;95.29;100907.41;4983762;28;20033;-75
2023/07/19 05:03:11;;;;;;;7.20;2.50;;;16.90;99.90;;;16.17;94.60;100898.38;5003238;28;20056;-76
2023/07/19 05:05:38;;;;;;;6.30;2.70;;;17.00;99.90;;;16.22;94.65;100902.53;4999774;28;20092;-76
2023/07/19 05:08:07;;;;;;;12.20;2.50;;;17.00;99.90;;;16.19;95.14;100904.44;5008349;28;20416;-77
2023/07/19 05:10:40;;;;;;;8.07;2.30;;;17.00;99.90;;;16.14;95.03;100906.56;4965116;28;20453;-76
2023/07/19 05:13:05;;;;;;;5.90;2.70;;;17.00;99.90;;;16.11;94.84;100912.09;4951021;28;20033;-76
2023/07/19 05:15:37;;;;;;;4.45;2.47;;;16.90;99.90;;;16.09;95.51;100919.31;4940976;28;20029;-76
2023/07/19 05:18:03;;;;;;;8.57;2.63;;;16.90;99.90;;;16.09;95.69;100924.63;4978746;28;20028;-76
2023/07/19 05:20:29;;;;;;;6.22;3.05;;;16.90;99.90;;;16.10;95.88;100920.16;5018840;28;20040;-76
2023/07/19 05:22:55;;;;;;;;;;;16.90;99.90;;;16.06;96.72;100922.16;4991658;28;20052;-77
2023/07/19 05:25:22;;;;;;;10.15;3.17;;;16.90;99.90;;;16.05;97.02;100920.47;4989536;28;19919;-76
2023/07/19 05:27:48;;;;;;;7.03;2.45;;;16.90;99.90;;;16.05;97.30;100916.97;5002667;28;20511;-76
2023/07/19 05:30:17;;;;;;;7.15;2.88;;;16.90;99.90;;;16.03;97.92;100914.41;4992743;28;20040;-76
2023/07/19 05:32:43;;;;;;;6.30;2.33;;;16.90;99.90;;;16.03;97.72;100909.09;4983302;28;20497;-76
2023/07/19 05:35:09;;;;;;;7.60;3.10;;;16.90;99.90;;;16.04;97.29;100913.44;4996903;28;20528;-76
2023/07/19 05:37:35;;;;;;;7.63;3.25;;;16.90;99.90;;;16.03;97.48;100916.22;5009468;28;20120;-75
2023/07/19 05:40:00;;;;;;;8.50;3.08;;;16.90;99.90;;;16.01;97.14;100912.81;4979992;28;20133;-76
2023/07/19 05:42:26;;;;;;;9.30;2.72;;;16.80;99.90;;;15.99;97.59;100911.09;4989111;28;20043;-76
2023/07/19 05:44:52;;;;;;;;;;;16.90;99.90;;;15.98;97.34;100917.38;4993003;28;20037;-76
2023/07/19 05:47:18;;;;;;;6.10;2.95;;;16.80;99.90;;;15.97;97.60;100920.13;5002672;28;19913;-76
2023/07/19 05:49:44;;;;;;;;;;;16.80;99.90;;;15.98;97.51;100914.72;4967409;28;20127;-76
2023/07/19 05:52:10;;;;;;;6.38;2.90;;;16.80;99.90;;;15.98;97.69;100921.81;4995829;28;19924;-76
2023/07/19 05:54:36;;;;;;;7.00;2.80;;;16.80;99.90;;;16.01;97.77;100916.31;4982165;28;20055;-76
2023/07/19 05:57:02;;;;;;;5.60;2.65;;;16.80;99.90;;;16.05;98.13;100916.97;5030238;28;20428;-76
2023/07/19 05:59:28;;;;;;;8.02;2.25;;;16.90;99.90;;;16.08;98.61;100917.59;5032646;28;20041;-76
2023/07/19 06:01:54;;;;;;;6.25;2.63;;;16.90;99.90;;;16.11;98.08;100914.75;4996864;28;20291;-76
2023/07/19 06:04:20;;;;;;;7.10;3.05;;;16.90;99.90;;;16.13;98.57;100907.53;5018445;28;20029;-76
2023/07/19 06:06:49;;;;;;;;;;;17.00;99.90;;;16.13;98.47;100912.84;4988254;28;20429;-76
2023/07/19 06:09:17;;;;;;;4.93;2.67;;;16.90;99.90;;;16.12;98.08;100912.94;4973388;28;19926;-76
2023/07/19 06:11:44;;;;;;;5.65;2.80;;;17.00;99.90;;;16.12;98.00;100910.28;4991583;28;22747;-76
2023/07/19 06:14:10;;;;;;;7.88;3.25;;;17.00;99.90;;;16.14;97.90;100916.34;4998910;28;20049;-75
2023/07/19 06:16:44;;;;;;;8.20;2.90;;;16.90;99.90;;;16.15;97.87;100913.56;4988168;28;20425;-76
2023/07/19 06:19:09;;;;;;;7.50;3.03;;;17.00;99.90;;;16.17;98.16;100916.97;4994178;28;20025;-76
2023/07/19 06:21:35;;;;;;;5.43;2.63;;;17.00;99.90;;;16.22;97.67;100908.72;5021043;28;20104;-76
2023/07/19 06:24:01;;;;;;;10.00;2.95;;;17.00;99.90;;;16.24;97.96;100909.47;5004948;28;20131;-76
2023/07/19 06:26:31;;;;;;;;;;;17.00;99.90;;;16.24;98.19;100914.78;4998023;28;20125;-77
2023/07/19 06:28:57;;;;;;;10.73;2.58;;;17.00;99.90;;;16.22;98.19;100913.16;4974261;28;19940;-79
2023/07/19 06:31:23;;;;;;;7.72;2.78;;;17.00;99.90;;;16.15;98.28;100913.56;4972516;28;20075;-82
2023/07/19 06:33:49;;;;;;;7.18;2.33;;;17.00;99.90;;;16.07;99.10;100910.59;4946605;28;20126;-81
2023/07/19 06:36:14;;;;;;;12.68;2.70;;;16.90;99.90;;;16.09;98.63;100911.34;4965899;28;20125;-80
2023/07/19 06:38:40;;;;;;;;;;;16.90;99.90;;;16.07;98.53;100920.34;4989695;23;20072;-79
2023/07/19 06:41:06;;;;;;;6.63;2.00;;;16.90;99.90;;;16.05;98.36;100914.31;4975944;28;19920;-80
2023/07/19 06:43:40;;;;;;;;;;;16.90;99.90;;;16.01;98.17;100913.66;4992567;28;20046;-80
2023/07/19 06:46:05;;;;;;;8.32;2.22;;;16.90;99.90;;;16.02;97.99;100915.34;5007671;28;19928;-80
2023/07/19 06:48:31;;;;;;;3.42;2.03;;;16.90;99.90;;;16.06;97.58;100908.88;4997711;28;20029;-81
2023/07/19 06:50:57;;;;;;;;;;;16.90;99.90;;;16.08;97.70;100904.31;4983884;28;20146;-80
2023/07/19 06:53:28;;;;;;;11.52;2.20;;;16.90;99.90;;;16.09;97.81;100906.03;4987827;28;20036;-82
2023/07/19 06:55:58;;;;;;;6.93;2.15;;;16.90;99.90;;;16.11;97.80;100900.59;4941339;28;20453;-81
2023/07/19 06:58:24;;;;;;;6.78;2.40;;;16.90;99.90;;;16.14;97.20;100906.56;4957058;28;20055;-81
2023/07/19 07:00:56;;;;;;;5.95;2.75;;;17.00;99.90;;;16.16;97.62;100896.69;4933026;28;20053;-81
2023/07/19 07:03:22;;;;;;;7.13;2.33;;;17.00;99.90;;;16.17;97.51;100900.19;4949692;28;20049;-81
2023/07/19 07:05:49;;;;;;;7.30;2.20;;;17.00;99.90;;;16.16;97.25;100894.03;4942895;28;20033;-80
2023/07/19 07:08:15;;;;;;;10.77;2.50;;;17.00;99.90;;;16.16;97.14;100899.34;4946672;28;20083;-81
2023/07/19 07:10:42;;;;;;;7.25;2.63;;;17.00;99.90;;;16.15;97.43;100900.28;4992678;28;20037;-80
2023/07/19 07:13:14;;;;;;;7.40;2.63;;;17.00;99.90;;;16.17;97.71;100895.72;4997207;28;20100;-79
2023/07/19 07:15:40;;;;;;;7.20;2.70;;;17.00;99.90;;;16.20;97.64;100898.19;4936056;28;20044;-80
2023/07/19 07:18:06;;;;;;;4.28;1.70;;;17.00;99.90;;;16.23;97.68;100904.25;4960027;28;20609;-80
2023/07/19 07:20:34;;;;;;;;;;;17.00;99.90;;;16.24;97.55;100911.25;4965471;28;20033;-79
2023/07/19 07:23:08;;;;;;;6.22;2.20;;;17.00;99.90;;;16.25;97.16;100912.97;4981540;28;19920;-79
2023/07/19 07:25:35;;;;;;;6.47;2.00;;;17.10;99.90;;;16.28;97.12;100915.41;4972042;28;20200;-81
2023/07/19 07:28:01;;;;;;;7.57;2.28;;;17.10;99.90;;;16.30;97.19;100916.16;4969607;28;20025;-82
2023/07/19 07:30:36;;;;;;;8.30;2.40;;;17.10;99.90;;;16.31;97.73;100913.41;4944212;28;20164;-80
2023/07/19 07:33:06;;;;;;;12.82;2.17;;;17.10;99.90;;;16.34;97.09;100917.66;4923345;28;20036;-81
2023/07/19 07:35:31;;;;;;;5.70;1.77;;;17.20;99.90;;;16.32;96.82;100909.78;4921469;28;20049;-81
2023/07/19 07:37:58;;;;;;;5.22;1.73;;;17.20;99.90;;;16.34;96.59;100922.97;4939359;28;20065;-80
2023/07/19 07:40:24;;;;;;;4.65;1.60;;;17.20;99.90;;;16.39;96.18;100918.19;5001038;28;20119;-81
2023/07/19 07:42:55;;;;;;;6.55;1.77;;;17.20;99.90;;;16.42;95.55;100895.88;4992720;28;20029;-79
2023/07/19 07:45:21;;;;;;;5.32;1.70;;;17.20;99.90;;;16.49;94.90;100899.81;4946390;28;20038;-80
2023/07/19 07:47:47;;;;;;;3.63;1.23;;;17.30;99.90;;;16.53;94.29;100896.84;4952753;28;20520;-80
2023/07/19 07:50:13;;;;;;;;;;;17.30;99.90;;;16.57;93.77;100892.16;4980518;28;20403;-80
2023/07/19 07:52:38;;;;;;;8.90;1.85;;;17.30;99.90;;;16.58;94.02;100902.66;4978622;28;19913;-80
2023/07/19 07:55:14;;;;;;;4.70;1.73;;;17.30;99.90;;;16.55;94.08;100907.38;4952652;28;20056;-81
2023/07/19 07:57:42;;;;;;;6.00;1.83;;;17.30;99.90;;;16.49;94.61;100905.97;4944360;28;20049;-81
2023/07/19 08:00:16;;;;;;;9.45;1.90;;;17.30;99.90;;;16.43;94.98;100911.69;4947218;28;20539;-81
2023/07/19 08:02:42;;;;;;;12.18;2.65;;;17.20;99.90;;;16.38;95.39;100908.53;4983058;28;20581;-80
2023/07/19 08:05:09;;;;;;;7.47;2.30;;;17.20;99.90;;;16.35;95.75;100908.75;4986549;28;20128;-80
2023/07/19 08:07:39;;;;;;;8.02;2.67;;;17.20;99.90;;;16.30;97.01;100900.22;4995232;28;20048;-79
2023/07/19 08:10:06;;;;;;;7.80;2.47;;;17.20;99.90;;;16.31;96.81;100891.31;4974661;28;20191;-80
2023/07/19 08:12:34;;;;;;;11.00;2.10;;;17.20;99.90;;;16.26;97.41;100904.03;4989060;28;20108;-80
2023/07/19 08:15:00;;;;;;;6.60;2.38;;;17.10;99.90;;;16.26;97.61;100896.06;4995956;28;20037;-79
2023/07/19 08:17:26;;;;;;;3.28;1.50;;;17.10;99.90;;;16.22;96.81;100899.88;4985647;28;20106;-79
2023/07/19 08:19:52;;;;;;;;;;;17.10;99.90;;;16.24;96.97;100895.31;5001546;28;20045;-80
2023/07/19 08:22:26;;;;;;;8.40;2.20;;;17.10;99.90;;;16.29;97.14;100888.72;5020721;28;19917;-80
2023/07/19 08:24:53;;;;;;;3.92;1.90;;;17.10;99.90;;;16.34;97.31;100896.38;4978533;28;20053;-80
2023/07/19 08:27:20;;;;;;;4.35;1.92;;;17.20;99.90;;;16.39;97.34;100883.63;5007664;28;20100;-80
2023/07/19 08:29:51;;;;;;;4.30;1.90;;;17.20;99.90;;;16.42;97.48;100870.16;4955038;28;20041;-80
2023/07/19 08:32:20;;;;;;;3.92;1.52;;;17.20;99.90;;;16.51;96.67;100890.78;5011158;28;20040;-79
2023/07/19 08:34:47;;;;;;;5.47;1.60;;;17.30;99.90;;;16.59;95.34;100885.78;5003084;28;20026;-79
2023/07/19 08:37:18;;;;;;;7.82;1.80;;;17.40;99.90;;;16.66;95.54;100901.31;5019452;28;20045;-79
2023/07/19 08:39:44;;;;;;;5.90;1.50;;;17.40;99.90;;;16.64;94.99;100905.88;4971960;28;20057;-80
2023/07/19 08:42:12;;;;;;;6.60;1.90;;;17.40;99.90;;;16.57;94.86;100903.63;5013461;28;20048;-79
2023/07/19 08:44:38;;;;;;;6.78;1.83;;;17.40;99.90;;;16.53;94.66;100906.63;4997756;28;20049;-79
2023/07/19 08:47:12;;;;;;;5.80;1.80;;;17.30;99.90;;;16.51;95.16;100908.53;4996094;28;20044;-81
2023/07/19 08:49:40;;;;;;;8.13;1.55;;;17.30;99.90;;;16.48;95.50;100893.66;5033995;28;20029;-79
2023/07/19 08:52:15;;;;;;;4.03;1.33;;;17.30;99.90;;;16.46;95.44;100900.00;5022094;28;20121;-79
2023/07/19 08:54:41;;;;;;;2.28;1.02;;;17.20;99.90;;;16.27;93.56;100895.13;4998821;28;20096;-79
2023/07/19 08:57:07;;;;;;;5.90;1.40;;;17.20;99.90;;;16.26;93.21;100898.72;5009467;28;20528;-78
2023/07/19 08:59:38;;;;;;;3.38;1.30;;;17.10;99.90;;;16.24;93.13;100906.81;5035791;28;20112;-79
2023/07/19 09:02:14;;;;;;;3.83;1.55;;;17.10;99.90;;;16.18;94.37;100910.72;4950070;28;20053;-79
2023/07/19 09:05:10;;;;;;;8.38;1.85;;;17.00;99.90;;;16.13;94.56;100906.66;5018187;28;20086;-80
2023/07/19 09:07:49;;;;;;;4.15;1.20;;;17.00;99.90;;;16.10;94.99;100898.91;4953342;28;20985;-79
2023/07/19 09:10:19;;;;;;;6.18;1.50;;;17.00;99.90;;;16.06;95.18;100900.91;4931006;28;20121;-79
2023/07/19 09:12:46;;;;;;;3.78;1.30;;;16.90;99.90;;;16.01;95.13;100900.38;4950181;28;20076;-80
2023/07/19 09:15:13;;;;;;;6.35;1.50;;;16.80;99.90;;;15.93;95.29;100908.84;4911880;28;20576;-79
2023/07/19 09:17:55;;;;;;;4.93;1.50;;;16.80;99.90;;;15.87;96.08;100908.38;4926330;28;20806;-79
2023/07/19 09:20:21;;;;;;;7.47;1.70;;;16.80;99.90;;;15.85;96.58;100911.13;4947155;28;20038;-79
2023/07/19 09:22:47;;;;;;;5.18;1.73;;;16.80;99.90;;;15.86;97.27;100910.19;4916405;28;20034;-79
2023/07/19 09:25:13;;;;;;;6.55;1.92;;;16.80;99.90;;;15.89;97.75;100904.66;4947443;28;20050;-79
2023/07/19 09:27:45;;;;;;;5.38;2.05;;;16.80;99.90;;;15.95;98.27;100909.59;4940173;28;20415;-79
2023/07/19 09:30:13;;;;;;;6.28;2.10;;;16.80;99.90;;;15.99;98.41;100913.75;4932578;28;20554;-79
2023/07/19 09:32:43;;;;;;;5.57;2.30;;;16.80;99.90;;;16.05;98.33;100911.66;4958213;28;20487;-79
2023/07/19 09:35:26;;;;;;;6.07;2.63;;;16.90;99.90;;;16.09;98.56;100913.13;4935683;28;20038;-79
2023/07/19 09:37:55;;;;;;;7.40;2.42;;;16.90;99.90;;;16.08;98.84;100900.81;4959055;28;20060;-80
2023/07/19 09:40:26;;;;;;;6.13;1.92;;;16.90;99.90;;;16.08;98.77;100896.34;4941124;28;20073;-79
2023/07/19 09:42:57;;;;;;;6.25;2.20;;;16.90;99.90;;;16.10;98.52;100891.78;4933782;28;20046;-79
2023/07/19 09:45:26;;;;;;;6.07;1.92;;;17.00;99.90;;;16.12;97.78;100892.53;4985356;28;20527;-81
2023/07/19 09:47:59;;;;;;;7.82;2.10;;;16.90;99.90;;;16.15;97.45;100899.44;5003635;28;20038;-80
2023/07/19 09:50:27;;;;;;;5.20;1.90;;;17.00;99.90;;;16.19;97.17;100892.97;5008714;28;20041;-80
2023/07/19 09:53:01;;;;;;;4.82;1.98;;;17.00;99.90;;;16.23;97.31;100890.97;4982602;28;20024;-80
2023/07/19 09:55:30;;;;;;;5.28;1.58;;;17.00;99.90;;;16.23;97.64;100890.97;5001301;28;20079;-79
2023/07/19 09:57:57;;;;;;;3.90;1.58;;;17.10;99.90;;;16.23;97.43;100881.19;5034585;28;20040;-79
2023/07/19 10:00:31;;;;;;;5.93;2.15;;;17.10;99.90;;;16.25;97.52;100879.28;5018021;28;20041;-79
2023/07/19 10:03:02;;;;;;;8.35;1.73;;;17.10;99.90;;;16.28;97.06;100875.56;5004952;28;20462;-80
2023/07/19 10:05:37;;;;;;;5.05;1.70;;;17.10;99.90;;;16.29;96.40;100872.78;5011909;28;20064;-79
2023/07/19 10:08:06;;;;;;;5.05;1.70;;;17.10;99.90;;;16.32;96.30;100879.69;5017736;28;20060;-80
2023/07/19 10:10:44;;;;;;;8.52;2.30;;;17.10;99.90;;;16.36;96.22;100881.19;4999919;28;20029;-79
2023/07/19 10:13:51;;;;;;;6.18;1.70;;;17.20;99.90;;;16.38;96.27;100895.22;4992408;28;20029;-79
2023/07/19 10:16:36;;;;;;;2.43;1.20;;;17.20;99.90;;;16.38;96.25;100895.22;4984313;28;20144;-79
2023/07/19 10:19:13;;;;;;;3.92;1.38;;;17.20;99.90;;;16.37;96.22;100889.06;5006912;28;20131;-80